createdAt,value
2016-03-31T00:00:05.676Z,22.75
2016-03-31T00:01:05.679Z,22.73
2016-03-31T00:02:05.697Z,22.73
2016-03-31T00:03:05.684Z,22.68
2016-03-31T00:04:05.703Z,22.67
2016-03-31T00:05:05.737Z,22.68
2016-03-31T00:06:05.708Z,22.7
2016-03-31T00:07:05.710Z,22.65
2016-03-31T00:08:05.728Z,22.7
2016-03-31T00:09:05.731Z,22.75
2016-03-31T00:10:05.734Z,22.79
2016-03-31T00:11:05.736Z,22.72
2016-03-31T00:12:05.739Z,22.67
2016-03-31T00:13:05.758Z,22.7
2016-03-31T00:14:05.761Z,22.76
2016-03-31T00:15:05.764Z,22.65
2016-03-31T00:16:07.328Z,22.61
2016-03-31T00:17:05.768Z,22.75
2016-03-31T00:18:05.661Z,22.64
2016-03-31T00:19:05.787Z,22.7
2016-03-31T00:20:07.175Z,22.7
2016-03-31T00:21:05.803Z,22.73
2016-03-31T00:22:05.805Z,22.65
2016-03-31T00:23:05.823Z,22.65
2016-03-31T00:24:05.811Z,22.65
2016-03-31T00:25:05.813Z,22.72
2016-03-31T00:26:05.832Z,22.61
2016-03-31T00:27:05.835Z,22.73
2016-03-31T00:28:05.852Z,22.72
2016-03-31T00:29:05.840Z,22.72
2016-03-31T00:30:05.858Z,22.65
2016-03-31T00:31:05.693Z,22.67
2016-03-31T00:32:05.869Z,22.7
2016-03-31T00:33:05.859Z,22.72
2016-03-31T00:34:05.876Z,22.68
2016-03-31T00:35:05.879Z,22.65
2016-03-31T00:36:05.898Z,22.67
2016-03-31T00:37:05.885Z,22.72
2016-03-31T00:38:05.903Z,22.7
2016-03-31T00:39:05.749Z,22.62
2016-03-31T00:40:05.909Z,22.65
2016-03-31T00:41:05.911Z,22.72
2016-03-31T00:42:05.898Z,22.61
2016-03-31T00:43:05.917Z,22.65
2016-03-31T00:44:05.935Z,22.67
2016-03-31T00:45:05.938Z,22.58
2016-03-31T00:46:20.066Z,22.65
2016-03-31T00:47:05.958Z,22.67
2016-03-31T00:48:05.946Z,22.65
2016-03-31T00:49:05.980Z,22.54
2016-03-31T00:50:05.966Z,22.67
2016-03-31T00:51:05.970Z,22.61
2016-03-31T00:52:05.972Z,22.76
2016-03-31T00:53:05.991Z,22.62
2016-03-31T00:54:05.993Z,22.6
2016-03-31T00:55:05.996Z,22.61
2016-03-31T00:56:05.998Z,22.64
2016-03-31T00:57:06.016Z,22.65
2016-03-31T00:58:06.019Z,22.62
2016-03-31T00:59:06.022Z,22.55
2016-03-31T01:00:06.040Z,22.6
2016-03-31T01:01:06.043Z,22.6
2016-03-31T01:02:06.030Z,22.54
2016-03-31T01:03:06.048Z,22.65
2016-03-31T01:04:06.051Z,22.58
2016-03-31T01:05:06.054Z,22.65
2016-03-31T01:06:06.056Z,22.62
2016-03-31T01:07:06.106Z,22.6
2016-03-31T01:08:06.078Z,22.6
2016-03-31T01:09:06.095Z,22.58
2016-03-31T01:10:05.927Z,22.6
2016-03-31T01:11:06.086Z,22.57
2016-03-31T01:12:06.089Z,22.6
2016-03-31T01:13:06.106Z,22.54
2016-03-31T01:14:06.109Z,22.57
2016-03-31T01:15:06.112Z,22.61
2016-03-31T01:16:06.114Z,22.61
2016-03-31T01:17:06.133Z,22.57
2016-03-31T01:18:06.136Z,22.57
2016-03-31T01:19:06.169Z,22.55
2016-03-31T01:20:06.157Z,22.58
2016-03-31T01:21:06.143Z,22.57
2016-03-31T01:22:06.146Z,22.58
2016-03-31T01:23:06.180Z,22.61
2016-03-31T01:24:06.183Z,22.55
2016-03-31T01:25:06.185Z,22.61
2016-03-31T01:26:06.173Z,22.52
2016-03-31T01:27:06.206Z,22.61
2016-03-31T01:28:06.193Z,22.54
2016-03-31T01:29:06.196Z,22.51
2016-03-31T01:30:06.198Z,22.55
2016-03-31T01:31:06.201Z,22.57
2016-03-31T01:32:06.220Z,22.61
2016-03-31T01:33:06.223Z,22.61
2016-03-31T01:34:06.225Z,22.58
2016-03-31T01:35:06.087Z,22.6
2016-03-31T01:36:06.231Z,22.62
2016-03-31T01:37:06.233Z,22.57
2016-03-31T01:38:06.283Z,22.45
2016-03-31T01:39:06.271Z,22.55
2016-03-31T01:40:06.273Z,22.58
2016-03-31T01:41:06.259Z,22.58
2016-03-31T01:42:06.263Z,22.52
2016-03-31T01:43:06.281Z,22.52
2016-03-31T01:44:06.284Z,22.47
2016-03-31T01:45:06.286Z,22.49
2016-03-31T01:46:06.352Z,22.51
2016-03-31T01:47:06.308Z,22.49
2016-03-31T01:48:06.310Z,22.45
2016-03-31T01:49:06.313Z,22.52
2016-03-31T01:50:06.316Z,22.51
2016-03-31T01:51:06.333Z,22.52
2016-03-31T01:52:06.321Z,22.51
2016-03-31T01:53:06.355Z,22.55
2016-03-31T01:54:06.341Z,22.52
2016-03-31T01:55:06.344Z,22.54
2016-03-31T01:56:06.363Z,22.57
2016-03-31T01:57:06.381Z,22.51
2016-03-31T01:58:06.368Z,22.55
2016-03-31T01:59:06.371Z,22.49
2016-03-31T02:00:06.390Z,22.47
2016-03-31T02:01:06.376Z,22.49
2016-03-31T02:02:06.410Z,22.45
2016-03-31T02:03:06.398Z,22.47
2016-03-31T02:04:06.415Z,22.49
2016-03-31T02:05:06.403Z,22.47
2016-03-31T02:06:06.406Z,22.51
2016-03-31T02:07:06.416Z,22.55
2016-03-31T02:08:06.435Z,22.54
2016-03-31T02:09:06.454Z,22.46
2016-03-31T02:10:06.440Z,22.45
2016-03-31T02:11:06.428Z,22.52
2016-03-31T02:12:06.446Z,22.54
2016-03-31T02:13:06.465Z,22.45
2016-03-31T02:14:06.467Z,22.49
2016-03-31T02:15:06.470Z,22.54
2016-03-31T02:16:06.472Z,22.52
2016-03-31T02:17:06.475Z,22.52
2016-03-31T02:18:06.496Z,22.49
2016-03-31T02:19:06.499Z,22.46
2016-03-31T02:20:06.502Z,22.49
2016-03-31T02:21:06.489Z,22.46
2016-03-31T02:22:06.492Z,22.54
2016-03-31T02:23:06.509Z,22.45
2016-03-31T02:24:06.528Z,22.47
2016-03-31T02:25:06.514Z,22.46
2016-03-31T02:26:06.517Z,22.62
2016-03-31T02:27:06.536Z,22.49
2016-03-31T02:28:06.538Z,22.47
2016-03-31T02:29:06.556Z,22.49
2016-03-31T02:30:06.559Z,22.49
2016-03-31T02:31:06.577Z,22.49
2016-03-31T02:32:06.564Z,22.49
2016-03-31T02:33:06.583Z,22.54
2016-03-31T02:34:06.586Z,22.52
2016-03-31T02:35:06.619Z,22.46
2016-03-31T02:36:06.591Z,22.49
2016-03-31T02:37:06.594Z,22.43
2016-03-31T02:38:06.596Z,22.51
2016-03-31T02:39:06.615Z,22.47
2016-03-31T02:40:06.602Z,22.47
2016-03-31T02:41:06.604Z,22.43
2016-03-31T02:42:06.624Z,22.49
2016-03-31T02:43:06.626Z,22.43
2016-03-31T02:44:06.629Z,22.55
2016-03-31T02:45:06.646Z,22.47
2016-03-31T02:46:20.760Z,22.49
2016-03-31T02:47:06.668Z,22.49
2016-03-31T02:48:06.654Z,22.37
2016-03-31T02:49:06.673Z,22.55
2016-03-31T02:50:06.660Z,22.45
2016-03-31T02:51:06.678Z,22.37
2016-03-31T02:52:06.682Z,22.43
2016-03-31T02:53:06.684Z,22.35
2016-03-31T02:54:06.687Z,22.4
2016-03-31T02:55:06.705Z,22.45
2016-03-31T02:56:06.692Z,22.42
2016-03-31T02:57:06.757Z,22.46
2016-03-31T02:58:06.713Z,22.47
2016-03-31T02:59:06.747Z,22.35
2016-03-31T03:00:06.719Z,22.47
2016-03-31T03:01:06.736Z,22.45
2016-03-31T03:02:06.740Z,22.42
2016-03-31T03:03:06.758Z,22.49
2016-03-31T03:04:06.761Z,22.4
2016-03-31T03:05:06.763Z,22.37
2016-03-31T03:06:06.750Z,22.52
2016-03-31T03:07:07.032Z,22.42
2016-03-31T03:08:06.750Z,22.39
2016-03-31T03:09:06.753Z,22.39
2016-03-31T03:10:06.771Z,22.39
2016-03-31T03:11:06.759Z,22.4
2016-03-31T03:12:06.777Z,22.45
2016-03-31T03:13:06.764Z,22.36
2016-03-31T03:14:06.798Z,22.45
2016-03-31T03:15:06.035Z,22.36
2016-03-31T03:16:06.803Z,22.39
2016-03-31T03:17:06.822Z,22.4
2016-03-31T03:18:06.825Z,22.42
2016-03-31T03:19:06.811Z,22.39
2016-03-31T03:20:06.813Z,22.37
2016-03-31T03:21:06.833Z,22.39
2016-03-31T03:22:06.835Z,22.4
2016-03-31T03:23:06.854Z,22.46
2016-03-31T03:24:06.841Z,22.39
2016-03-31T03:25:06.859Z,22.43
2016-03-31T03:26:06.862Z,22.42
2016-03-31T03:27:06.864Z,22.42
2016-03-31T03:28:06.883Z,22.45
2016-03-31T03:29:06.870Z,22.36
2016-03-31T03:30:06.872Z,22.39
2016-03-31T03:31:06.876Z,22.39
2016-03-31T03:32:06.893Z,22.43
2016-03-31T03:33:06.896Z,22.45
2016-03-31T03:34:06.915Z,22.47
2016-03-31T03:35:06.901Z,22.42
2016-03-31T03:36:06.919Z,22.47
2016-03-31T03:37:06.922Z,22.43
2016-03-31T03:38:06.925Z,22.37
2016-03-31T03:39:06.943Z,22.42
2016-03-31T03:40:06.946Z,22.39
2016-03-31T03:41:06.933Z,22.45
2016-03-31T03:42:06.936Z,22.42
2016-03-31T03:43:06.938Z,22.33
2016-03-31T03:44:06.973Z,22.36
2016-03-31T03:45:06.960Z,22.39
2016-03-31T03:46:06.977Z,22.42
2016-03-31T03:47:06.981Z,22.4
2016-03-31T03:48:06.983Z,22.39
2016-03-31T03:49:07.002Z,22.37
2016-03-31T03:50:06.832Z,22.45
2016-03-31T03:51:06.991Z,22.4
2016-03-31T03:52:07.025Z,22.36
2016-03-31T03:53:07.013Z,22.45
2016-03-31T03:54:07.031Z,22.36
2016-03-31T03:55:07.018Z,22.39
2016-03-31T03:56:07.035Z,22.42
2016-03-31T03:57:07.024Z,22.42
2016-03-31T03:58:07.057Z,22.4
2016-03-31T03:59:07.044Z,22.45
2016-03-31T04:00:07.078Z,22.42
2016-03-31T04:01:07.049Z,22.35
2016-03-31T04:02:07.067Z,22.43
2016-03-31T04:03:07.070Z,22.46
2016-03-31T04:04:07.089Z,22.39
2016-03-31T04:05:07.092Z,22.42
2016-03-31T04:06:07.078Z,22.33
2016-03-31T04:07:07.128Z,22.43
2016-03-31T04:08:07.100Z,22.42
2016-03-31T04:09:07.102Z,22.42
2016-03-31T04:10:07.105Z,22.36
2016-03-31T04:11:07.108Z,22.46
2016-03-31T04:12:07.133Z,22.45
2016-03-31T04:13:07.912Z,22.43
2016-03-31T04:14:06.961Z,22.46
2016-03-31T04:15:07.225Z,22.37
2016-03-31T04:16:07.243Z,22.37
2016-03-31T04:17:07.136Z,22.36
2016-03-31T04:18:07.123Z,22.42
2016-03-31T04:19:07.142Z,22.45
2016-03-31T04:20:07.129Z,22.45
2016-03-31T04:21:07.162Z,22.35
2016-03-31T04:22:07.149Z,22.33
2016-03-31T04:23:07.168Z,22.45
2016-03-31T04:24:07.155Z,22.4
2016-03-31T04:25:07.189Z,22.33
2016-03-31T04:26:07.229Z,22.42
2016-03-31T04:27:07.299Z,22.36
2016-03-31T04:28:07.355Z,22.39
2016-03-31T04:29:07.426Z,22.55
2016-03-31T04:30:07.454Z,22.4
2016-03-31T04:31:07.319Z,22.33
2016-03-31T04:32:07.497Z,22.42
2016-03-31T04:33:07.534Z,22.42
2016-03-31T04:34:07.556Z,22.42
2016-03-31T04:35:07.574Z,22.46
2016-03-31T04:36:07.598Z,22.37
2016-03-31T04:37:07.607Z,22.49
2016-03-31T04:38:07.601Z,22.4
2016-03-31T04:39:07.625Z,22.42
2016-03-31T04:40:07.711Z,22.4
2016-03-31T04:41:07.638Z,22.42
2016-03-31T04:42:07.504Z,22.4
2016-03-31T04:43:07.664Z,22.37
2016-03-31T04:44:07.685Z,22.33
2016-03-31T04:45:07.674Z,22.39
2016-03-31T04:46:09.553Z,22.28
2016-03-31T04:47:07.681Z,22.36
2016-03-31T04:48:07.702Z,22.42
2016-03-31T04:49:07.720Z,22.43
2016-03-31T04:50:07.755Z,22.36
2016-03-31T04:51:07.712Z,22.43
2016-03-31T04:52:07.715Z,22.37
2016-03-31T04:53:07.733Z,22.31
2016-03-31T04:54:07.736Z,22.45
2016-03-31T04:55:07.739Z,22.36
2016-03-31T04:56:07.758Z,22.47
2016-03-31T04:57:07.776Z,22.45
2016-03-31T04:58:07.748Z,22.42
2016-03-31T04:59:07.766Z,22.45
2016-03-31T05:00:07.769Z,22.42
2016-03-31T05:01:07.803Z,22.39
2016-03-31T05:02:07.774Z,22.37
2016-03-31T05:03:07.809Z,22.45
2016-03-31T05:04:07.780Z,22.45
2016-03-31T05:05:07.798Z,22.42
2016-03-31T05:06:07.801Z,22.4
2016-03-31T05:07:07.804Z,22.43
2016-03-31T05:08:07.822Z,22.37
2016-03-31T05:09:07.825Z,22.45
2016-03-31T05:10:07.827Z,22.36
2016-03-31T05:11:07.814Z,22.43
2016-03-31T05:12:07.833Z,22.43
2016-03-31T05:13:07.851Z,22.43
2016-03-31T05:14:07.854Z,22.36
2016-03-31T05:15:07.857Z,22.36
2016-03-31T05:16:07.906Z,22.42
2016-03-31T05:17:07.878Z,22.4
2016-03-31T05:18:07.880Z,22.4
2016-03-31T05:19:07.898Z,22.4
2016-03-31T05:20:07.886Z,22.42
2016-03-31T05:21:07.888Z,22.28
2016-03-31T05:22:07.907Z,22.52
2016-03-31T05:23:07.909Z,22.45
2016-03-31T05:24:07.912Z,22.47
2016-03-31T05:25:07.915Z,22.42
2016-03-31T05:26:07.918Z,22.39
2016-03-31T05:27:07.937Z,22.39
2016-03-31T05:28:07.923Z,22.54
2016-03-31T05:29:07.925Z,22.39
2016-03-31T05:30:07.945Z,22.45
2016-03-31T05:31:07.931Z,22.42
2016-03-31T05:32:07.964Z,22.42
2016-03-31T05:33:07.967Z,22.39
2016-03-31T05:34:07.970Z,22.37
2016-03-31T05:35:07.972Z,22.46
2016-03-31T05:36:07.975Z,22.4
2016-03-31T05:37:07.978Z,22.42
2016-03-31T05:38:07.980Z,22.37
2016-03-31T05:39:07.984Z,22.49
2016-03-31T05:40:08.017Z,22.55
2016-03-31T05:41:07.989Z,22.45
2016-03-31T05:42:08.007Z,22.39
2016-03-31T05:43:08.010Z,22.47
2016-03-31T05:44:08.059Z,22.49
2016-03-31T05:45:08.031Z,22.46
2016-03-31T05:46:08.033Z,22.45
2016-03-31T05:47:08.052Z,22.46
2016-03-31T05:48:08.038Z,22.47
2016-03-31T05:49:08.042Z,22.49
2016-03-31T05:50:08.076Z,22.47
2016-03-31T05:51:08.062Z,22.47
2016-03-31T05:52:08.082Z,22.49
2016-03-31T05:53:08.068Z,22.42
2016-03-31T05:54:08.071Z,22.36
2016-03-31T05:55:08.090Z,22.47
2016-03-31T05:56:08.092Z,22.49
2016-03-31T05:57:08.095Z,22.49
2016-03-31T05:58:08.112Z,22.46
2016-03-31T05:59:08.100Z,22.49
2016-03-31T06:00:08.133Z,22.51
2016-03-31T06:01:08.121Z,22.49
2016-03-31T06:02:08.139Z,22.46
2016-03-31T06:03:08.126Z,22.4
2016-03-31T06:04:08.129Z,22.45
2016-03-31T06:05:08.147Z,22.52
2016-03-31T06:06:08.166Z,22.42
2016-03-31T06:07:08.153Z,22.52
2016-03-31T06:08:08.155Z,22.39
2016-03-31T06:09:08.158Z,22.46
2016-03-31T06:10:08.177Z,22.47
2016-03-31T06:11:08.164Z,22.47
2016-03-31T06:12:08.182Z,22.47
2016-03-31T06:13:08.185Z,22.55
2016-03-31T06:14:08.188Z,22.46
2016-03-31T06:15:08.221Z,22.37
2016-03-31T06:16:08.193Z,22.49
2016-03-31T06:17:08.227Z,22.47
2016-03-31T06:18:08.213Z,22.42
2016-03-31T06:19:08.232Z,22.47
2016-03-31T06:20:08.234Z,22.47
2016-03-31T06:21:08.237Z,22.61
2016-03-31T06:22:08.240Z,22.49
2016-03-31T06:23:08.243Z,22.49
2016-03-31T06:24:08.245Z,22.52
2016-03-31T06:25:08.248Z,22.49
2016-03-31T06:26:08.266Z,22.46
2016-03-31T06:27:08.269Z,22.45
2016-03-31T06:28:08.271Z,22.42
2016-03-31T06:29:08.290Z,22.39
2016-03-31T06:30:08.277Z,22.43
2016-03-31T06:31:08.311Z,22.47
2016-03-31T06:32:08.298Z,22.54
2016-03-31T06:33:08.300Z,22.52
2016-03-31T06:34:08.304Z,22.39
2016-03-31T06:35:08.306Z,22.51
2016-03-31T06:36:08.324Z,22.47
2016-03-31T06:37:08.171Z,22.42
2016-03-31T06:38:08.314Z,22.49
2016-03-31T06:39:08.348Z,22.46
2016-03-31T06:40:08.336Z,22.52
2016-03-31T06:41:08.353Z,22.45
2016-03-31T06:42:08.356Z,22.46
2016-03-31T06:43:08.374Z,22.51
2016-03-31T06:44:08.361Z,22.52
2016-03-31T06:45:08.380Z,22.51
2016-03-31T06:46:08.398Z,22.46
2016-03-31T06:47:08.386Z,22.46
2016-03-31T06:48:08.404Z,22.51
2016-03-31T06:49:08.390Z,22.46
2016-03-31T06:50:08.394Z,22.54
2016-03-31T06:51:08.396Z,22.46
2016-03-31T06:52:08.414Z,22.58
2016-03-31T06:53:08.433Z,22.49
2016-03-31T06:54:08.435Z,22.46
2016-03-31T06:55:08.438Z,22.45
2016-03-31T06:56:08.426Z,22.52
2016-03-31T06:57:08.459Z,22.47
2016-03-31T06:58:08.446Z,22.52
2016-03-31T06:59:08.448Z,22.51
2016-03-31T07:00:08.529Z,22.42
2016-03-31T07:01:08.470Z,22.52
2016-03-31T07:02:08.472Z,22.51
2016-03-31T07:03:08.476Z,22.51
2016-03-31T07:04:08.478Z,22.54
2016-03-31T07:05:08.495Z,22.45
2016-03-31T07:06:08.484Z,22.51
2016-03-31T07:07:08.501Z,22.49
2016-03-31T07:08:08.509Z,22.55
2016-03-31T07:09:08.511Z,22.51
2016-03-31T07:10:08.499Z,22.51
2016-03-31T07:11:08.517Z,22.46
2016-03-31T07:12:08.519Z,22.49
2016-03-31T07:13:08.522Z,22.54
2016-03-31T07:14:08.541Z,22.46
2016-03-31T07:15:08.543Z,22.47
2016-03-31T07:16:08.563Z,22.43
2016-03-31T07:17:08.565Z,22.52
2016-03-31T07:18:08.551Z,22.47
2016-03-31T07:19:08.555Z,22.45
2016-03-31T07:20:08.573Z,22.46
2016-03-31T07:21:08.575Z,22.47
2016-03-31T07:22:08.593Z,22.46
2016-03-31T07:23:08.597Z,22.52
2016-03-31T07:24:08.599Z,22.46
2016-03-31T07:25:08.601Z,22.51
2016-03-31T07:26:08.604Z,22.49
2016-03-31T07:27:08.623Z,22.46
2016-03-31T07:28:08.640Z,22.47
2016-03-31T07:29:08.628Z,22.47
2016-03-31T07:30:08.631Z,22.47
2016-03-31T07:31:08.633Z,22.6
2016-03-31T07:32:08.636Z,22.57
2016-03-31T07:33:08.654Z,22.62
2016-03-31T07:34:08.657Z,22.75
2016-03-31T07:35:08.659Z,22.91
2016-03-31T07:36:08.678Z,23.04
2016-03-31T07:37:08.665Z,23.04
2016-03-31T07:38:08.699Z,23.23
2016-03-31T07:39:08.686Z,23.31
2016-03-31T07:40:08.673Z,23.32
2016-03-31T07:41:08.691Z,23.35
2016-03-31T07:42:08.694Z,23.48
2016-03-31T07:43:08.697Z,23.53
2016-03-31T07:44:08.700Z,23.66
2016-03-31T07:45:08.718Z,23.78
2016-03-31T07:46:08.721Z,23.78
2016-03-31T07:47:08.723Z,23.76
2016-03-31T07:48:08.727Z,23.78
2016-03-31T07:49:08.760Z,23.78
2016-03-31T07:50:08.747Z,23.93
2016-03-31T07:51:08.766Z,23.91
2016-03-31T07:52:08.752Z,24.02
2016-03-31T07:53:08.771Z,24
2016-03-31T07:54:08.773Z,24.08
2016-03-31T07:55:08.776Z,24.02
2016-03-31T07:56:08.779Z,23.98
2016-03-31T07:57:08.781Z,23.87
2016-03-31T07:58:08.784Z,24.03
2016-03-31T07:59:08.803Z,23.88
2016-03-31T08:00:08.806Z,24
2016-03-31T08:01:08.823Z,23.95
2016-03-31T08:02:08.826Z,23.87
2016-03-31T08:03:08.844Z,23.79
2016-03-31T08:04:08.831Z,23.78
2016-03-31T08:05:08.834Z,23.76
2016-03-31T08:06:08.853Z,23.78
2016-03-31T08:07:08.871Z,23.78
2016-03-31T08:08:08.858Z,23.79
2016-03-31T08:09:08.861Z,23.73
2016-03-31T08:10:08.864Z,23.73
2016-03-31T08:11:08.867Z,23.88
2016-03-31T08:12:08.869Z,23.83
2016-03-31T08:13:08.887Z,23.9
2016-03-31T08:14:08.889Z,22.4
2016-03-31T08:15:08.892Z,22.3
2016-03-31T08:16:08.941Z,21.54
2016-03-31T08:17:08.898Z,22.07
2016-03-31T08:18:08.885Z,22.39
2016-03-31T08:19:08.888Z,22.75
2016-03-31T08:20:08.890Z,21.59
2016-03-31T08:21:08.893Z,21.14
2016-03-31T08:22:08.896Z,20.85
2016-03-31T08:23:08.898Z,21.84
2016-03-31T08:24:08.901Z,21.94
2016-03-31T08:25:08.903Z,21.44
2016-03-31T08:26:08.906Z,21.1
2016-03-31T08:27:08.893Z,21.42
2016-03-31T08:28:08.895Z,21.42
2016-03-31T08:29:08.899Z,22.39
2016-03-31T08:30:08.901Z,21.62
2016-03-31T08:31:08.889Z,21.31
2016-03-31T08:32:08.922Z,21.91
2016-03-31T08:33:08.894Z,21.91
2016-03-31T08:34:08.881Z,21.69
2016-03-31T08:35:08.884Z,22.55
2016-03-31T08:36:08.902Z,23.05
2016-03-31T08:37:08.889Z,22.91
2016-03-31T08:38:08.876Z,22.21
2016-03-31T08:39:08.878Z,21.91
2016-03-31T08:40:08.882Z,22.6
2016-03-31T08:41:08.884Z,23.04
2016-03-31T08:42:08.887Z,22.7
2016-03-31T08:43:08.875Z,23.33
2016-03-31T08:44:08.877Z,22.86
2016-03-31T08:45:08.895Z,22.27
2016-03-31T08:46:08.898Z,21.99
2016-03-31T08:47:08.900Z,22.35
2016-03-31T08:48:08.872Z,21.77
2016-03-31T08:49:08.875Z,20.92
2016-03-31T08:50:08.893Z,20.26
2016-03-31T08:51:08.895Z,20.69
2016-03-31T08:52:08.866Z,20.41
2016-03-31T08:53:08.869Z,20.03
2016-03-31T08:54:08.872Z,20.85
2016-03-31T08:55:08.874Z,20.91
2016-03-31T08:56:08.862Z,19.99
2016-03-31T08:57:08.865Z,20.62
2016-03-31T08:58:08.868Z,20.13
2016-03-31T08:59:08.854Z,21.13
2016-03-31T09:00:08.857Z,22.07
2016-03-31T09:01:08.860Z,21.5
2016-03-31T09:02:08.848Z,20.02
2016-03-31T09:03:08.834Z,19.65
2016-03-31T09:04:08.836Z,19.95
2016-03-31T09:05:08.840Z,19.78
2016-03-31T09:06:08.826Z,20.72
2016-03-31T09:07:08.828Z,21.74
2016-03-31T09:08:08.831Z,20.88
2016-03-31T09:09:08.834Z,20.91
2016-03-31T09:10:08.837Z,20.99
2016-03-31T09:11:08.839Z,20.52
2016-03-31T09:12:08.827Z,20.52
2016-03-31T09:13:08.814Z,20.91
2016-03-31T09:14:08.832Z,20.72
2016-03-31T09:15:08.819Z,21.43
2016-03-31T09:16:08.806Z,21.79
2016-03-31T09:17:08.809Z,22.17
2016-03-31T09:18:08.844Z,22.25
2016-03-31T09:19:08.814Z,21.68
2016-03-31T09:20:08.802Z,21.24
2016-03-31T09:21:08.805Z,20.67
2016-03-31T09:22:08.807Z,20.73
2016-03-31T09:23:08.810Z,20.31
2016-03-31T09:24:08.796Z,20.58
2016-03-31T09:25:08.800Z,20.98
2016-03-31T09:26:08.787Z,19.94
2016-03-31T09:27:08.805Z,20.72
2016-03-31T09:28:08.777Z,20.72
2016-03-31T09:29:08.795Z,20.66
2016-03-31T09:30:08.766Z,20.36
2016-03-31T09:31:08.768Z,21.01
2016-03-31T09:32:08.787Z,20.39
2016-03-31T09:33:08.806Z,20.61
2016-03-31T09:34:08.777Z,20.36
2016-03-31T09:35:08.764Z,20.72
2016-03-31T09:36:08.751Z,20.66
2016-03-31T09:37:08.754Z,20.89
2016-03-31T09:38:08.787Z,20.91
2016-03-31T09:39:08.759Z,20.88
2016-03-31T09:40:08.762Z,20.43
2016-03-31T09:41:08.749Z,21.69
2016-03-31T09:42:08.736Z,20.35
2016-03-31T09:43:08.739Z,20.74
2016-03-31T09:44:08.742Z,20.58
2016-03-31T09:45:08.729Z,19.94
2016-03-31T09:46:08.716Z,19.92
2016-03-31T09:47:08.718Z,20.87
2016-03-31T09:48:08.752Z,21.77
2016-03-31T09:49:08.723Z,21.69
2016-03-31T09:50:08.726Z,22.31
2016-03-31T09:51:08.729Z,22.6
2016-03-31T09:52:08.732Z,22.97
2016-03-31T09:53:08.719Z,23.22
2016-03-31T09:54:08.722Z,23.39
2016-03-31T09:55:08.724Z,23.54
2016-03-31T09:56:08.727Z,23.57
2016-03-31T09:57:08.714Z,23.61
2016-03-31T09:58:08.732Z,23.6
2016-03-31T09:59:08.735Z,23.73
2016-03-31T10:00:08.753Z,23.79
2016-03-31T10:01:08.740Z,24.02
2016-03-31T10:02:08.743Z,24
2016-03-31T10:03:08.509Z,23.98
2016-03-31T10:04:08.762Z,23.97
2016-03-31T10:05:08.765Z,24.03
2016-03-31T10:06:08.782Z,23.87
2016-03-31T10:07:08.769Z,23.9
2016-03-31T10:08:08.772Z,23.91
2016-03-31T10:09:08.775Z,23.91
2016-03-31T10:10:08.793Z,23.85
2016-03-31T10:11:09.140Z,24.05
2016-03-31T10:12:08.798Z,24.02
2016-03-31T10:13:08.816Z,24.09
2016-03-31T10:14:08.819Z,24.03
2016-03-31T10:15:08.822Z,23.98
2016-03-31T10:16:08.825Z,23.88
2016-03-31T10:17:08.828Z,23.93
2016-03-31T10:18:08.908Z,24
2016-03-31T10:19:08.864Z,23.91
2016-03-31T10:20:08.867Z,24.09
2016-03-31T10:21:08.853Z,24.13
2016-03-31T10:22:08.857Z,24
2016-03-31T10:23:08.875Z,24
2016-03-31T10:24:08.878Z,23.95
2016-03-31T10:25:08.880Z,23.98
2016-03-31T10:26:08.883Z,23.91
2016-03-31T10:27:08.902Z,24
2016-03-31T10:28:08.904Z,24.15
2016-03-31T10:29:08.907Z,24.2
2016-03-31T10:30:08.909Z,24.35
2016-03-31T10:31:08.912Z,24.45
2016-03-31T10:32:08.930Z,24.53
2016-03-31T10:33:09.027Z,24.55
2016-03-31T10:34:08.951Z,24.61
2016-03-31T10:35:08.954Z,24.53
2016-03-31T10:36:08.956Z,24.69
2016-03-31T10:37:08.975Z,24.6
2016-03-31T10:38:08.978Z,24.49
2016-03-31T10:39:08.981Z,24.58
2016-03-31T10:40:08.984Z,24.68
2016-03-31T10:41:08.986Z,24.61
2016-03-31T10:42:08.989Z,24.52
2016-03-31T10:43:08.991Z,24.61
2016-03-31T10:44:08.995Z,24.52
2016-03-31T10:45:08.997Z,24.43
2016-03-31T10:46:09.031Z,24.35
2016-03-31T10:47:09.064Z,24.32
2016-03-31T10:48:09.098Z,24.3
2016-03-31T10:49:09.054Z,24.2
2016-03-31T10:50:09.088Z,24.21
2016-03-31T10:51:09.059Z,24.12
2016-03-31T10:52:09.062Z,24.22
2016-03-31T10:53:09.081Z,24.28
2016-03-31T10:54:09.083Z,24.3
2016-03-31T10:55:09.070Z,24.2
2016-03-31T10:56:09.088Z,24.24
2016-03-31T10:57:09.107Z,24.24
2016-03-31T10:58:09.110Z,24.2
2016-03-31T10:59:09.113Z,24.12
2016-03-31T11:00:09.131Z,24.15
2016-03-31T11:01:09.118Z,24.22
2016-03-31T11:02:09.121Z,24.27
2016-03-31T11:03:09.202Z,24.21
2016-03-31T11:04:09.141Z,24.1
2016-03-31T11:05:08.988Z,24.18
2016-03-31T11:06:09.163Z,24.2
2016-03-31T11:07:09.165Z,24.16
2016-03-31T11:08:09.168Z,24.18
2016-03-31T11:09:09.170Z,24.13
2016-03-31T11:10:09.173Z,24.08
2016-03-31T11:11:09.192Z,24.15
2016-03-31T11:12:09.195Z,24.16
2016-03-31T11:13:09.197Z,24.05
2016-03-31T11:14:09.215Z,24.03
2016-03-31T11:15:09.218Z,24.09
2016-03-31T11:16:09.237Z,24.13
2016-03-31T11:17:09.239Z,24.1
2016-03-31T11:18:09.273Z,24.12
2016-03-31T11:19:09.245Z,24.12
2016-03-31T11:20:09.247Z,24.13
2016-03-31T11:21:09.250Z,24.21
2016-03-31T11:22:09.268Z,24.08
2016-03-31T11:23:09.270Z,24.13
2016-03-31T11:24:09.273Z,24.08
2016-03-31T11:25:09.308Z,24.13
2016-03-31T11:26:09.295Z,24.05
2016-03-31T11:27:09.313Z,24.15
2016-03-31T11:28:09.331Z,24.18
2016-03-31T11:29:09.318Z,24.22
2016-03-31T11:30:09.336Z,24.21
2016-03-31T11:31:09.338Z,24.1
2016-03-31T11:32:09.341Z,24.21
2016-03-31T11:33:09.407Z,24.35
2016-03-31T11:34:09.346Z,24.35
2016-03-31T11:35:09.350Z,24.4
2016-03-31T11:36:09.368Z,24.46
2016-03-31T11:37:09.370Z,24.47
2016-03-31T11:38:09.373Z,24.53
2016-03-31T11:39:09.376Z,24.67
2016-03-31T11:40:09.379Z,24.67
2016-03-31T11:41:09.382Z,24.69
2016-03-31T11:42:09.400Z,24.62
2016-03-31T11:43:09.403Z,24.73
2016-03-31T11:44:09.420Z,24.73
2016-03-31T11:45:09.423Z,24.71
2016-03-31T11:46:10.223Z,23.36
2016-03-31T11:47:09.429Z,22.35
2016-03-31T11:48:09.462Z,22.17
2016-03-31T11:49:09.434Z,21.82
2016-03-31T11:50:09.436Z,21.42
2016-03-31T11:51:09.439Z,21.14
2016-03-31T11:52:09.442Z,20.94
2016-03-31T11:53:09.445Z,20.48
2016-03-31T11:54:09.464Z,21.17
2016-03-31T11:55:09.435Z,22.07
2016-03-31T11:56:09.438Z,21.84
2016-03-31T11:57:09.440Z,22.51
2016-03-31T11:58:09.443Z,22.86
2016-03-31T11:59:09.430Z,21.94
2016-03-31T12:00:09.448Z,21.99
2016-03-31T12:01:09.436Z,21.17
2016-03-31T12:02:09.438Z,21.22
2016-03-31T12:03:09.316Z,21.68
2016-03-31T12:04:09.444Z,21.17
2016-03-31T12:05:09.447Z,21.75
2016-03-31T12:06:09.449Z,21.88
2016-03-31T12:07:09.452Z,21.09
2016-03-31T12:08:09.454Z,20.91
2016-03-31T12:09:09.457Z,21.04
2016-03-31T12:10:09.459Z,21.24
2016-03-31T12:11:09.446Z,21.62
2016-03-31T12:12:09.449Z,21.64
2016-03-31T12:13:09.468Z,21.32
2016-03-31T12:14:09.471Z,21.25
2016-03-31T12:15:09.473Z,21.71
2016-03-31T12:16:09.726Z,21.9
2016-03-31T12:17:09.462Z,21.43
2016-03-31T12:18:09.481Z,21.5
2016-03-31T12:19:09.452Z,21.21
2016-03-31T12:20:09.456Z,21.74
2016-03-31T12:21:09.458Z,21.01
2016-03-31T12:22:09.461Z,21.64
2016-03-31T12:23:09.448Z,22.1
2016-03-31T12:24:09.482Z,22.47
2016-03-31T12:25:09.469Z,22.73
2016-03-31T12:26:09.472Z,23.15
2016-03-31T12:27:09.474Z,23.28
2016-03-31T12:28:09.477Z,23.42
2016-03-31T12:29:09.463Z,23.48
2016-03-31T12:30:09.325Z,23.58
2016-03-31T12:31:09.485Z,23.65
2016-03-31T12:32:09.488Z,23.68
2016-03-31T12:33:09.380Z,23.72
2016-03-31T12:34:09.508Z,23.54
2016-03-31T12:35:09.495Z,23.78
2016-03-31T12:36:09.513Z,23.84
2016-03-31T12:37:09.516Z,23.78
2016-03-31T12:38:09.519Z,23.79
2016-03-31T12:39:09.522Z,23.78
2016-03-31T12:40:09.540Z,23.84
2016-03-31T12:41:09.527Z,23.93
2016-03-31T12:42:09.545Z,23.85
2016-03-31T12:43:09.548Z,23.93
2016-03-31T12:44:09.551Z,24
2016-03-31T12:45:09.554Z,24.06
2016-03-31T12:46:09.572Z,24
2016-03-31T12:47:09.418Z,24.09
2016-03-31T12:48:09.608Z,24.1
2016-03-31T12:49:09.595Z,24.16
2016-03-31T12:50:09.598Z,24.06
2016-03-31T12:51:09.601Z,24.06
2016-03-31T12:52:09.604Z,24.1
2016-03-31T12:53:09.450Z,24.2
2016-03-31T12:54:09.609Z,24.13
2016-03-31T12:55:09.642Z,24.22